Flight Track Log - Related Links

Times and Time Zones

All times are in EDT time to prevent confusion due to time zone crossing. See the BJS542 flight status page for this flight to view local times or setup timezone preferences in your user account.

Time Position Orientation Groundspeed Altitude Reporting Facility
EDT Latitude Longitude Course Direction KTS MPH feet Rate Location/Type
Sun 06:36:06 PM 42.4500 -71.2500 144° Southeast 191 220 2,000  Level KA90
Sun 06:37:09 PM 42.3833 -71.2833 200° South 268 308 5,500 3,550 Climbing KA90
Sun 06:38:06 PM 42.3167 -71.2500 160° South 290 334 9,100 2,683 Climbing KA90
Sun 06:39:50 PM 42.2031 -71.1172 139° Southeast 371 427 12,700 1,829 Climbing Boston Center
Sun 06:40:50 PM 42.1272 -71.0433 144° Southeast 371 427 14,100 2,364 Climbing Boston Center
Sun 06:42:02 PM 42.0258 -70.9392 143° Southeast 377 434 17,900 3,273 Climbing Boston Center
Sun 06:43:02 PM 41.9350 -70.8494 144° Southeast 372 428 21,300 3,000 Climbing Boston Center
Sun 06:44:02 PM 41.8442 -70.7708 147° Southeast 377 434 23,900 2,500 Climbing Boston Center
Sun 06:45:02 PM 41.7447 -70.8097 196° South 370 426 26,300 2,250 Climbing Boston Center
Sun 06:46:02 PM 41.6439 -70.8983 213° Southwest 361 415 28,400 1,800 Climbing Boston Center
Sun 06:47:02 PM 41.5447 -70.9811 212° Southwest 397 457 29,900 1,600 Climbing Boston Center
Sun 06:48:02 PM 41.4631 -71.1050 229° Southwest 430 495 31,600 1,650 Climbing Boston Center
Sun 06:49:02 PM 41.3853 -71.2367 232° Southwest 436 502 33,200 1,591 Climbing Boston Center
Sun 06:50:14 PM 41.2869 -71.3958 231° Southwest 462 532 35,100 1,727 Climbing Boston Center
Sun 06:51:14 PM 41.2067 -71.5297 231° Southwest 468 539 37,000 1,650 Climbing Boston Center
Sun 06:52:14 PM 41.1450 -71.6408 234° Southwest 461 531 38,400 1,350 Climbing Boston Center
Sun 06:53:14 PM 41.0961 -71.7900 247° West 442 509 39,700 1,200 Climbing Boston Center
Sun 06:55:14 PM 40.9431 -72.0692 234° Southwest 447 514 42,000 1,100 Climbing Boston Center
Sun 06:56:14 PM 40.8581 -72.1794 224° Southwest 447 514 43,000 500 Climbing Boston Center
Sun 06:57:14 PM 40.7686 -72.2867 222° Southwest 440 506 43,000  Level Boston Center
Sun 06:58:14 PM 40.6769 -72.3936 222° Southwest 440 506 43,000  Level Boston Center
Sun 06:59:14 PM 40.5914 -72.5056 225° Southwest 440 506 43,000  Level Boston Center
Sun 07:01:00 PM 40.4562 -72.7121 229° Southwest  Level FlightAware Approximate
Sun 07:02:14 PM 40.3219 -72.8292 229° Southwest 445 512 43,000  Level Boston Center
Sun 07:03:14 PM 40.2319 -72.9375 223° Southwest 445 512 43,000  Level Boston Center
Sun 07:04:14 PM 40.1439 -73.0536 225° Southwest 445 512 43,000  Level Boston Center
Sun 07:06:25 PM 39.9517 -73.2883 223° Southwest 456 525 43,000  Level Washington Center
Sun 07:07:26 PM 39.8600 -73.3967 222° Southwest 456 525 43,000  Level Washington Center
Sun 07:08:27 PM 39.7658 -73.4942 219° Southwest 450 518 43,000 -50 Level Washington Center
Sun 07:09:27 PM 39.6592 -73.5833 213° Southwest 450 518 42,900  Descending Washington Center
Sun 07:10:25 PM 39.5564 -73.6697 213° Southwest 455 524 43,000 50 Climbing Washington Center
Sun 07:11:27 PM 39.4514 -73.7558 212° Southwest 455 524 43,000  Level Washington Center
Sun 07:12:27 PM 39.3567 -73.8336 212° Southwest 450 518 43,000  Level Washington Center
Sun 07:13:25 PM 39.2517 -73.9164 211° Southwest 450 518 43,000  Level Washington Center
Sun 07:14:26 PM 39.1467 -74.0072 214° Southwest 455 524 43,000  Level Washington Center
Sun 07:15:26 PM 39.0392 -74.0897 211° Southwest 449 517 43,000  Level Washington Center
Sun 07:16:26 PM 38.9319 -74.1800 213° Southwest 449 517 43,000  Level Washington Center
Sun 07:17:27 PM 38.8286 -74.2592 211° Southwest 449 517 43,000  Level Washington Center
Sun 07:18:25 PM 38.7211 -74.3464 212° Southwest 454 522 43,000  Level Washington Center
Sun 07:19:25 PM 38.6158 -74.4306 212° Southwest 454 522 43,000  Level Washington Center
Sun 07:20:26 PM 38.5103 -74.5144 212° Southwest 449 517 43,000  Level Washington Center
Sun 07:21:25 PM 38.4067 -74.5981 212° Southwest 449 517 43,000  Level Washington Center
Sun 07:22:26 PM 38.3008 -74.6842 213° Southwest 449 517 43,000  Level Washington Center
Sun 07:23:27 PM 38.1972 -74.7622 211° Southwest 449 517 43,000  Level Washington Center
Sun 07:24:25 PM 38.0875 -74.8531 213° Southwest 443 510 43,000  Level Washington Center
Sun 07:25:25 PM 37.9836 -74.9358 212° Southwest 443 510 43,000  Level Washington Center
Sun 07:26:26 PM 37.8797 -75.0103 209° Southwest 443 510 43,000  Level Washington Center
Sun 07:27:26 PM 37.7778 -75.0900 212° Southwest 438 504 43,000  Level Washington Center
Sun 07:28:27 PM 37.6803 -75.1667 212° Southwest 428 493 43,000  Level Washington Center
Sun 07:29:25 PM 37.5803 -75.2433 211° Southwest 428 493 43,000  Level Washington Center
Sun 07:30:26 PM 37.4803 -75.3197 211° Southwest 428 493 43,000  Level Washington Center
Sun 07:31:27 PM 37.3803 -75.3958 211° Southwest 428 493 43,000  Level Washington Center
Sun 07:32:27 PM 37.2783 -75.4744 212° Southwest 428 493 43,000  Level Washington Center
Sun 07:33:27 PM 37.1742 -75.5528 211° Southwest 428 493 43,000  Level Washington Center
Sun 07:34:27 PM 37.0697 -75.6308 211° Southwest 433 498 43,000  Level Washington Center
Sun 07:35:26 PM 36.9656 -75.7089 211° Southwest 433 498 43,000  Level Washington Center
Sun 07:36:27 PM 36.8547 -75.7736 205° Southwest 433 498 43,000  Level Washington Center
Sun 07:37:27 PM 36.7400 -75.8356 203° Southwest 441 507 43,000  Level Washington Center
Sun 07:38:25 PM 36.6375 -75.8844 201° Southwest 447 514 43,000 -50 Level Washington Center
Sun 07:39:26 PM 36.5311 -75.9408 203° Southwest 437 503 42,900  Descending Washington Center
Sun 07:40:27 PM 36.4203 -75.9972 202° Southwest 432 497 43,000 50 Climbing Washington Center
Sun 07:41:27 PM 36.3158 -76.0508 202° Southwest 426 490 43,000  Level Washington Center
Sun 07:42:28 PM 36.2069 -76.1042 202° Southwest 426 490 43,000  Level Washington Center
Sun 07:43:25 PM 36.1025 -76.1575 202° Southwest 420 483 43,000  Level Washington Center
Sun 07:44:26 PM 35.9917 -76.2108 201° Southwest 420 483 43,000  Level Washington Center
Sun 07:45:27 PM 35.8850 -76.2636 202° Southwest 415 478 43,000 -50 Level Washington Center
Sun 07:46:27 PM 35.7761 -76.3167 202° Southwest 415 478 42,900  Descending Washington Center
Sun 07:47:27 PM 35.6694 -76.3667 201° Southwest 415 478 43,000 50 Climbing Washington Center
Sun 07:48:27 PM 35.5606 -76.4194 202° Southwest 415 478 43,000  Level Washington Center
Sun 07:49:28 PM 35.4539 -76.4717 202° Southwest 415 478 43,000  Level Washington Center
Sun 07:50:25 PM 35.3364 -76.5342 203° Southwest 415 478 43,000  Level Washington Center
Sun 07:51:25 PM 35.2275 -76.5864 201° Southwest 415 478 43,000  Level Washington Center
Sun 07:52:26 PM 35.1186 -76.6408 202° Southwest 415 478 43,000  Level Washington Center
Sun 07:53:26 PM 35.0200 -76.6903 202° Southwest 415 478 43,000  Level Washington Center
Sun 07:54:27 PM 34.9111 -76.7419 201° Southwest 415 478 43,000  Level Washington Center
Sun 07:55:25 PM 34.8022 -76.7936 201° Southwest 415 478 43,000  Level Washington Center
Sun 07:56:25 PM 34.6931 -76.8450 201° Southwest 420 483 43,000  Level Washington Center
Sun 07:57:25 PM 34.5883 -76.8964 202° Southwest 415 478 43,000  Level Washington Center
Sun 07:58:26 PM 34.4814 -76.9450 201° Southwest 415 478 43,000  Level Washington Center
Sun 07:59:27 PM 34.3786 -76.9961 202° Southwest 415 478 43,000  Level Washington Center
Sun 08:00:25 PM 34.2714 -77.0447 201° Southwest 415 478 43,000  Level Washington Center
Sun 08:03:51 PM 33.9047 -77.2156 201° Southwest 429 494 43,000  Level Jacksonville Center
Sun 08:04:51 PM 33.7986 -77.2672 202° Southwest 429 494 43,000  Level Jacksonville Center
Sun 08:05:51 PM 33.6903 -77.3167 201° Southwest 423 487 43,000  Level Jacksonville Center
Sun 08:06:51 PM 33.5839 -77.3681 202° Southwest 423 487 43,000  Level Jacksonville Center
Sun 08:07:51 PM 33.4736 -77.4175 201° Southwest 423 487 43,000  Level Jacksonville Center
Sun 08:08:51 PM 33.3672 -77.4686 202° Southwest 423 487 43,000  Level Jacksonville Center
Sun 08:09:51 PM 33.2567 -77.5178 200° South 428 493 43,000 -50 Level Jacksonville Center
Sun 08:10:51 PM 33.1400 -77.5742 202° Southwest 423 487 42,900  Descending Jacksonville Center
Sun 08:11:51 PM 33.0336 -77.6228 201° Southwest 423 487 43,000 50 Climbing Jacksonville Center
Sun 08:12:51 PM 32.9228 -77.6689 199° South 428 493 43,000  Level Jacksonville Center
Sun 08:13:51 PM 32.8122 -77.7197 201° Southwest 428 493 43,000  Level Jacksonville Center
Sun 08:14:51 PM 32.7039 -77.7728 202° Southwest 428 493 43,000 -50 Level Jacksonville Center
Sun 08:15:51 PM 32.5931 -77.8186 199° South 428 493 42,900  Descending Jacksonville Center
Sun 08:16:51 PM 32.4844 -77.8689 201° Southwest 423 487 43,000  Climbing Jacksonville Center
Sun 08:17:51 PM 32.3778 -77.9167 201° Southwest 428 493 42,900  Descending Jacksonville Center
Sun 08:18:51 PM 32.2711 -77.9642 201° Southwest 423 487 43,000 50 Climbing Jacksonville Center
Sun 08:19:51 PM 32.1644 -78.0117 201° Southwest 423 487 43,000 250 Level Jacksonville Center
Sun 08:20:51 PM 32.0556 -78.0614 201° Southwest 423 487 43,500 650 Climbing Jacksonville Center
Sun 08:21:51 PM 31.9508 -78.1086 201° Southwest 417 480 44,300 750 Climbing Jacksonville Center
Sun 08:22:51 PM 31.8483 -78.1531 200° South 412 474 45,000 350 Climbing Jacksonville Center
Sun 08:23:51 PM 31.7456 -78.2000 201° Southwest 406 467 45,000 -50 Level Jacksonville Center
Sun 08:24:51 PM 31.6389 -78.2517 202° Southwest 406 467 44,900  Descending Jacksonville Center
Sun 08:25:51 PM 31.5458 -78.3269 215° Southwest 406 467 45,000  Climbing Jacksonville Center
Sun 08:26:51 PM 31.4500 -78.3972 212° Southwest 411 473 44,900  Descending Jacksonville Center
Sun 08:27:51 PM 31.3428 -78.4317 195° South 411 473 45,000 50 Climbing Jacksonville Center
Sun 08:28:51 PM 31.2289 -78.4614 193° South 411 473 45,000  Level Jacksonville Center
Sun 08:29:51 PM 31.1111 -78.4889 191° South 424 488 45,000  Level Jacksonville Center
Sun 08:30:51 PM 30.9925 -78.5064 187° South 430 495 45,000  Level Jacksonville Center
Sun 08:31:51 PM 30.8744 -78.5314 190° South 437 503 45,000  Level Jacksonville Center
Sun 08:33:46 PM 30.6639 -78.5744 190° South 435 501 45,000  Level Miami Center
Sun 08:34:46 PM 30.5428 -78.5967 189° South 435 501 45,000  Level Miami Center
Sun 08:35:46 PM 30.4258 -78.6211 190° South 434 499 45,000  Level Miami Center
Sun 08:36:46 PM 30.3047 -78.6456 190° South 442 509 45,000  Level Miami Center
Sun 08:37:46 PM 30.1811 -78.6769 192° South 442 509 45,000  Level Miami Center
Sun 08:38:46 PM 30.0642 -78.7039 191° South 442 509 45,000  Level Miami Center
Sun 08:39:46 PM 29.9364 -78.7447 195° South 442 509 45,000  Level Miami Center
Sun 08:40:46 PM 29.8172 -78.7714 191° South 436 502 45,000  Level Miami Center
Sun 08:41:46 PM 29.6958 -78.8003 192° South 436 502 45,000  Level Miami Center
Sun 08:42:46 PM 29.5767 -78.8292 192° South 436 502 45,000  Level Miami Center
Sun 08:43:46 PM 29.4636 -78.8581 193° South 437 503 45,000  Level Miami Center
Sun 08:44:46 PM 29.3403 -78.8819 190° South 432 497 45,000  Level Miami Center
Sun 08:45:46 PM 29.2250 -78.9156 194° South 434 499 45,000  Level Miami Center
Sun 08:46:46 PM 29.1056 -78.9442 192° South 434 499 45,000  Level Miami Center
Sun 08:47:46 PM 28.9864 -78.9706 191° South 434 499 45,000  Level Miami Center
Sun 08:48:46 PM 28.8669 -78.9989 192° South 434 499 45,000 -200 Level Miami Center
Sun 08:49:46 PM 28.7517 -79.0253 191° South 429 494 44,600 -600 Descending Miami Center
Sun 08:50:46 PM 28.6325 -79.0536 192° South 434 499 43,800 -800 Descending Miami Center
Sun 08:51:46 PM 28.5172 -79.0797 191° South 434 499 43,000 -800 Descending Miami Center
Sun 08:52:46 PM 28.4000 -79.1081 192° South 434 499 42,200 -800 Descending Miami Center
Sun 08:53:46 PM 28.2847 -79.1342 191° South 434 499 41,400 -800 Descending Miami Center
Sun 08:54:46 PM 28.1714 -79.1625 192° South 429 494 40,600 -1,200 Descending Miami Center
Sun 08:55:46 PM 28.0561 -79.1906 192° South 429 494 39,000 -1,700 Descending Miami Center
Sun 08:56:46 PM 27.9431 -79.2167 192° South 424 488 37,200 -1,800 Descending Miami Center
Sun 08:57:46 PM 27.8403 -79.2403 191° South 419 482 35,400 -1,750 Descending Miami Center
Sun 08:58:46 PM 27.7250 -79.2661 191° South 424 488 33,700 -1,850 Descending Miami Center
Sun 08:59:46 PM 27.5931 -79.2983 192° South 442 509 31,700 -1,900 Descending Miami Center
Sun 09:00:46 PM 27.4736 -79.3264 192° South 442 509 29,900 -1,800 Descending Miami Center
Sun 09:01:46 PM 27.3500 -79.3542 191° South 448 516 28,100 -2,050 Descending Miami Center
Sun 09:02:46 PM 27.2431 -79.3797 192° South 444 511 25,800 -2,050 Descending Miami Center
Sun 09:03:46 PM 27.1233 -79.4097 193° South 439 505 24,000 -900 Descending Miami Center
Sun 09:04:46 PM 27.0017 -79.4444 194° South 420 483 24,000 -750 Level Miami Center
Sun 09:05:46 PM 26.8944 -79.4794 196° South 414 476 22,500 -1,650 Descending Miami Center
Sun 09:06:46 PM 26.7811 -79.5094 193° South 419 482 20,700 -1,700 Descending Miami Center
Sun 09:07:46 PM 26.6719 -79.5442 196° South 413 475 19,100 -1,700 Descending Miami Center
Sun 09:08:46 PM 26.5750 -79.5953 205° Southwest 401 461 17,300 -1,778 Descending Miami Center
Sun 09:09:07 PM 26.5389 -79.6200 211° Southwest 391 450 16,700 -2,471 Descending Miami Center
Sun 09:09:37 PM 26.5044 -79.6681 231° Southwest 360 414 15,200 -2,440 Descending Miami Center
Sun 09:10:38 PM 26.4550 -79.7481 235° Southwest 303 349 13,000 -1,279 Descending Miami Center
Sun 09:11:39 PM 26.4117 -79.8258 238° Southwest 277 319 12,600 -938 Descending Miami Center
Sun 09:12:46 PM 26.3458 -79.8775 215° Southwest 280 322 11,000 -756 Descending Miami Center
Sun 09:13:46 PM 26.2719 -79.9106 202° Southwest 285 328 11,000 -517 Level Miami Center
Sun 09:14:42 PM 26.2067 -79.9411 203° Southwest 286 329 10,000 -931 Descending Miami Center
Sun 09:15:42 PM 26.1267 -79.9714 199° South 280 322 9,200 -1,210 Descending Miami Center
Sun 09:16:46 PM 26.0592 -79.9997 201° Southwest 290 334 7,500 -1,875 Descending Miami Center
Sun 09:17:50 PM 25.9747 -80.0344 200° South 276 318 5,200 -1,950 Descending Miami Center
Sun 09:18:46 PM 25.9200 -80.0561 200° South 285 328 3,600 -1,082 Descending Miami Center
Sun 09:19:52 PM 25.8464 -80.0867 200° South 204 235 3,000 -632 Descending Miami Center
Sun 09:20:59 PM 25.8075 -80.1364 229° Southwest 203 234 2,200 -750 Descending Miami Center
Sun 09:22:00 PM 25.8042 -80.1892 266° West 162 186 1,400 -726 Descending Miami Center
Sun 09:23:03 PM 25.8033 -80.2353 269° West 131 151 700 -629 Descending Miami Center
Sun 09:24:04 PM 25.8003 -80.2769 265° West 128 147 100 -590 Descending Miami Center
Sun 09:26:00 PM 25.7954 -80.2901 274° West  Level Estimated

Login

Don't have an account? Register now (free) for customized features, flight alerts, and more!